Main page
METAR-TAF:

METAR-TAF

Airports :

Bordeaux, France

Bordeaux–Mérignac Airport

latitude: 44-50N, longitude: 000-42W, elevation: 49 m

Current weather observation

The report was made 42 minutes ago, at 08:30 UTC
Wind 10 kt from the South/Southeast
Temperature 11°C
Humidity 66%
Pressure 1017 hPa
Visibility 10 km or more
no clouds below 1500 m and no cumulonimbus

METAR: LFBD 260830Z AUTO 15010KT CAVOK 11/05 Q1017 NOSIG

Time: 11:12 (09:12 UTC)

Forecast

The report was made 4 hours and 12 minutes ago, at 05:00 UTC
Forecast valid from 26 at 06 UTC to 27 at 12 UTC
Wind 8 kt from the East
Visibility 10 km or more
no clouds below 1500 m and no cumulonimbus

TAF: LFBD 260500Z 2606/2712 10008KT CAVOK TX19/2615Z TN06/2606Z

Weather observations and forecasts of more than 4000 airports (METAR and TAF reports).

The available stations are represented by yellow and red dots on the map.

Hover mouse over dot to see the name of the station.

Then click to see weather observations and forecasts.

To change the map : click on the green buttons with a black cross to zoom in, on the green button with a dash to zoom out, or on the green arrows for adjacent maps.


METAR-TAF: